Time;durP1;ratioP1;P1;durP2;ratioP2;P2;SDS_P1;SDS_P2;PMS_P1;PMS_P2;Temp;Humidity;BMP_temperature;BMP_pressure;BME280_temperature;BME280_humidity;BME280_pressure;Samples;Min_cycle;Max_cycle;Signal;HPM_P1;HPM_P2
2022/03/27 00:00:19;;;;;;;27.93;16.57;;;12.10;45.00;;;;;;5069420;28;20542;-68
2022/03/27 00:02:48;;;;;;;27.23;16.07;;;12.00;45.30;;;;;;5069359;28;20797;-68
2022/03/27 00:05:15;;;;;;;24.07;15.40;;;11.90;45.30;;;;;;5069845;28;20889;-68
2022/03/27 00:07:42;;;;;;;28.67;17.43;;;11.90;45.50;;;;;;5073119;28;20449;-68
2022/03/27 00:10:10;;;;;;;26.73;15.83;;;11.90;45.50;;;;;;5073389;28;20484;-68
2022/03/27 00:12:37;;;;;;;26.90;16.10;;;11.80;45.70;;;;;;5073526;28;20475;-68
2022/03/27 00:15:05;;;;;;;24.33;15.70;;;11.80;45.80;;;;;;5073450;28;20464;-69
2022/03/27 00:17:34;;;;;;;23.63;15.43;;;11.80;45.80;;;;;;5073002;28;20484;-69
2022/03/27 00:20:05;;;;;;;28.77;16.87;;;11.60;46.00;;;;;;5073132;28;20780;-68
2022/03/27 00:22:32;;;;;;;26.80;16.70;;;11.60;46.20;;;;;;5072894;28;20456;-67
2022/03/27 00:24:59;;;;;;;22.60;15.43;;;11.60;46.30;;;;;;5073146;28;20449;-67
2022/03/27 00:27:26;;;;;;;23.90;15.50;;;11.70;46.40;;;;;;5072788;28;20492;-67
2022/03/27 00:29:53;;;;;;;26.50;15.63;;;11.60;46.50;;;;;;5073039;28;20489;-67
2022/03/27 00:32:20;;;;;;;26.33;18.30;;;11.60;46.90;;;;;;5072477;28;20945;-67
2022/03/27 00:34:48;;;;;;;26.17;16.60;;;11.50;47.00;;;;;;5072708;28;20449;-67
2022/03/27 00:37:17;;;;;;;30.13;17.33;;;11.60;46.90;;;;;;5072449;28;20491;-67
2022/03/27 00:39:44;;;;;;;27.90;16.80;;;11.50;47.20;;;;;;5072760;28;20555;-68
2022/03/27 00:42:12;;;;;;;24.70;16.97;;;11.60;47.10;;;;;;5072388;28;20453;-68
2022/03/27 00:44:39;;;;;;;28.60;15.87;;;11.50;47.10;;;;;;5072471;28;20948;-68
2022/03/27 00:47:07;;;;;;;30.33;17.93;;;11.50;47.00;;;;;;5073029;28;20444;-68
2022/03/27 00:49:34;;;;;;;25.53;15.83;;;11.60;46.80;;;;;;5072552;28;21002;-68
2022/03/27 00:52:01;;;;;;;35.00;16.50;;;11.30;47.30;;;;;;5072800;28;20456;-68
2022/03/27 00:54:30;;;;;;;28.77;17.20;;;11.30;47.60;;;;;;5072217;28;20452;-68
2022/03/27 00:56:57;;;;;;;25.33;17.50;;;11.30;47.20;;;;;;5072771;28;20456;-68
2022/03/27 00:59:24;;;;;;;28.00;16.77;;;11.30;47.00;;;;;;5072541;28;20484;-68
2022/03/27 01:01:51;;;;;;;27.73;17.50;;;11.10;47.40;;;;;;5072759;28;20523;-68
2022/03/27 01:04:18;;;;;;;22.83;16.67;;;11.10;47.50;;;;;;5072475;28;20449;-68
2022/03/27 01:06:46;;;;;;;22.67;17.10;;;11.10;48.00;;;;;;5072644;28;20452;-68
2022/03/27 01:12:13;;;;;;;31.33;16.67;;;11.00;47.50;;;;;;5072346;28;20432;-68
2022/03/27 01:14:41;;;;;;;24.10;15.83;;;11.00;47.40;;;;;;5072441;28;20522;-67
2022/03/27 01:17:09;;;;;;;27.13;15.83;;;10.80;48.30;;;;;;5072625;28;20455;-68
2022/03/27 01:19:37;;;;;;;24.67;17.10;;;10.80;47.90;;;;;;5072120;28;20495;-68
2022/03/27 01:22:06;;;;;;;22.50;15.57;;;10.90;47.50;;;;;;5072223;28;20791;-68
2022/03/27 01:24:33;;;;;;;31.97;17.77;;;10.80;47.50;;;;;;5071988;28;20449;-68
2022/03/27 01:27:00;;;;;;;32.17;16.70;;;10.70;47.80;;;;;;5071793;28;20852;-68
2022/03/27 01:29:27;;;;;;;26.80;16.83;;;10.80;47.60;;;;;;5071772;28;20491;-67
2022/03/27 01:31:55;;;;;;;29.47;16.50;;;10.70;47.60;;;;;;5072024;28;20460;-67
2022/03/27 01:34:22;;;;;;;24.77;15.23;;;10.80;47.50;;;;;;5072099;28;20763;-67
2022/03/27 01:36:49;;;;;;;28.40;15.83;;;10.70;47.60;;;;;;5071732;28;20457;-67
2022/03/27 01:39:18;;;;;;;31.60;14.87;;;10.80;48.00;;;;;;5071551;28;20465;-67
2022/03/27 01:41:46;;;;;;;23.67;12.80;;;10.80;48.30;;;;;;5071733;28;20441;-67
2022/03/27 01:44:15;;;;;;;25.30;12.77;;;10.70;48.20;;;;;;5071732;28;20460;-66
2022/03/27 01:46:43;;;;;;;28.50;13.03;;;10.60;48.10;;;;;;5071462;28;20911;-67
2022/03/27 01:49:13;;;;;;;18.07;12.10;;;10.20;48.70;;;;;;5071653;28;20479;-67
2022/03/27 01:51:41;;;;;;;21.67;12.00;;;10.30;49.10;;;;;;5071427;28;21021;-67
2022/03/27 01:54:08;;;;;;;23.83;12.30;;;10.00;49.10;;;;;;5071521;28;20453;-67
2022/03/27 01:56:38;;;;;;;25.60;12.93;;;9.70;50.90;;;;;;5071005;28;20937;-68
2022/03/27 01:59:06;;;;;;;17.90;11.10;;;9.90;50.90;;;;;;5071614;28;21020;-68
2022/03/27 02:01:34;;;;;;;24.87;11.60;;;10.10;49.30;;;;;;5071436;28;20444;-67
2022/03/27 02:04:01;;;;;;;21.47;11.37;;;10.00;49.20;;;;;;5071395;28;20449;-66
2022/03/27 02:06:28;;;;;;;19.40;11.57;;;10.10;49.10;;;;;;5071429;28;20506;-68
2022/03/27 02:08:55;;;;;;;20.03;11.47;;;9.90;50.20;;;;;;5071202;28;20480;-68
2022/03/27 02:11:23;;;;;;;22.40;12.13;;;10.00;49.60;;;;;;5071053;28;20985;-68
2022/03/27 02:13:52;;;;;;;19.40;13.03;;;10.10;49.80;;;;;;5071260;28;20941;-68
2022/03/27 02:16:19;;;;;;;26.87;13.40;;;10.10;49.70;;;;;;5071086;28;20801;-68
2022/03/27 02:18:46;;;;;;;17.27;12.50;;;10.10;49.50;;;;;;5070630;28;20499;-68
2022/03/27 02:21:13;;;;;;;23.33;13.13;;;10.20;49.70;;;;;;5070923;28;20453;-68
2022/03/27 02:23:40;;;;;;;22.67;12.17;;;10.10;49.80;;;;;;5070570;28;20468;-68
2022/03/27 02:26:08;;;;;;;23.97;12.30;;;10.10;49.90;;;;;;5070715;28;20449;-68
2022/03/27 02:28:35;;;;;;;20.70;11.90;;;10.00;50.10;;;;;;5070401;28;20996;-67
2022/03/27 02:31:04;;;;;;;24.70;12.77;;;9.90;51.10;;;;;;5070518;28;20491;-67
2022/03/27 02:33:31;;;;;;;23.83;12.40;;;9.90;51.20;;;;;;5070860;28;20463;-67
2022/03/27 02:35:58;;;;;;;20.60;12.20;;;9.90;51.30;;;;;;5070873;28;20456;-67
2022/03/27 02:38:26;;;;;;;25.53;12.67;;;9.90;51.40;;;;;;5070626;28;20969;-68
2022/03/27 02:40:53;;;;;;;20.00;11.73;;;9.80;51.60;;;;;;5070193;28;20449;-68
2022/03/27 02:43:20;;;;;;;19.27;11.00;;;9.80;51.80;;;;;;5070135;28;20445;-68
2022/03/27 02:45:50;;;;;;;16.47;10.83;;;9.90;51.80;;;;;;5070332;28;20556;-68
2022/03/27 02:48:18;;;;;;;22.73;11.07;;;9.90;52.00;;;;;;5070449;28;20473;-67
2022/03/27 02:50:45;;;;;;;15.30;10.27;;;9.90;51.90;;;;;;5070254;28;20489;-66
2022/03/27 02:53:13;;;;;;;17.87;10.10;;;9.90;52.10;;;;;;5069945;28;21183;-68
2022/03/27 02:55:40;;;;;;;19.67;11.53;;;10.00;51.00;;;;;;5070342;28;20481;-67
2022/03/27 02:58:08;;;;;;;17.03;9.53;;;10.00;51.00;;;;;;5070155;28;20476;-68
2022/03/27 03:00:35;;;;;;;16.80;10.87;;;9.90;52.20;;;;;;5070047;28;20563;-67
2022/03/27 03:03:02;;;;;;;15.83;10.57;;;9.90;52.30;;;;;;5070220;28;20449;-66
2022/03/27 03:05:31;;;;;;;19.67;11.90;;;10.00;51.10;;;;;;5069815;28;20498;-68
2022/03/27 03:07:59;;;;;;;17.73;10.20;;;10.10;51.00;;;;;;5069613;28;20464;-66
2022/03/27 03:10:26;;;;;;;23.10;10.37;;;10.10;50.80;;;;;;5070181;28;20919;-67
2022/03/27 03:12:53;;;;;;;18.50;11.43;;;10.20;50.70;;;;;;5069862;28;20461;-67
2022/03/27 03:15:22;;;;;;;22.13;11.60;;;10.10;50.70;;;;;;5069937;28;20921;-67
2022/03/27 03:17:49;;;;;;;22.90;12.00;;;10.00;50.70;;;;;;5070078;28;20859;-67
2022/03/27 03:20:17;;;;;;;22.00;11.93;;;9.80;52.10;;;;;;5070001;28;20456;-66
2022/03/27 03:22:46;;;;;;;17.37;11.23;;;9.80;52.50;;;;;;5069549;28;21023;-67
2022/03/27 03:25:14;;;;;;;25.63;12.87;;;9.80;52.70;;;;;;5069599;28;20460;-67
2022/03/27 03:27:41;;;;;;;18.13;11.67;;;9.80;52.90;;;;;;5069605;28;20985;-67
2022/03/27 03:30:10;;;;;;;23.03;11.90;;;9.70;52.90;;;;;;5069768;28;20471;-67
2022/03/27 03:32:37;;;;;;;21.20;12.73;;;9.60;53.40;;;;;;5069797;28;20460;-66
2022/03/27 03:35:05;;;;;;;20.50;11.80;;;9.50;53.80;;;;;;5070175;28;20556;-66
2022/03/27 03:37:32;;;;;;;14.43;11.40;;;9.40;54.10;;;;;;5069901;28;20445;-67
2022/03/27 03:40:00;;;;;;;20.87;11.07;;;9.30;54.70;;;;;;5068709;28;20448;-66
2022/03/27 03:42:28;;;;;;;17.80;12.13;;;9.20;55.00;;;;;;5069590;28;20480;-67
2022/03/27 03:44:55;;;;;;;21.87;11.07;;;9.10;55.50;;;;;;5069567;28;20485;-67
2022/03/27 03:47:22;;;;;;;17.93;11.00;;;9.10;55.60;;;;;;5069473;28;20453;-67
2022/03/27 03:49:49;;;;;;;19.50;11.33;;;9.30;55.60;;;;;;5069553;28;20441;-67
2022/03/27 03:52:16;;;;;;;19.77;11.43;;;9.20;56.10;;;;;;5069353;28;20480;-67
2022/03/27 03:54:44;;;;;;;25.03;11.87;;;9.30;56.10;;;;;;5069480;28;20513;-67
2022/03/27 03:57:12;;;;;;;18.63;10.37;;;9.30;55.90;;;;;;5069454;28;20818;-67
2022/03/27 03:59:39;;;;;;;18.80;12.20;;;9.20;56.20;;;;;;5069078;28;20477;-67
2022/03/27 04:02:07;;;;;;;16.70;12.10;;;9.30;56.70;;;;;;5069428;28;20886;-68
2022/03/27 04:04:35;;;;;;;23.20;11.03;;;9.30;56.50;;;;;;5069456;28;20472;-68
2022/03/27 04:07:04;;;;;;;20.83;11.47;;;9.30;56.70;;;;;;5069211;28;20939;-68
2022/03/27 04:09:31;;;;;;;19.13;11.60;;;9.20;56.60;;;;;;5069171;28;20479;-68
2022/03/27 04:11:58;;;;;;;18.00;10.73;;;9.30;57.50;;;;;;5069328;28;20488;-68
2022/03/27 04:14:28;;;;;;;19.63;10.83;;;9.20;57.60;;;;;;5069403;28;20925;-68
2022/03/27 04:16:56;;;;;;;22.00;11.07;;;9.30;57.60;;;;;;5069366;28;20906;-67
2022/03/27 04:19:24;;;;;;;29.40;12.27;;;9.30;57.50;;;;;;5069305;28;20899;-67
2022/03/27 04:21:51;;;;;;;22.30;11.97;;;9.30;57.50;;;;;;5069219;28;20786;-68
2022/03/27 04:24:18;;;;;;;19.90;11.20;;;9.40;57.40;;;;;;5069045;28;20487;-68
2022/03/27 04:26:45;;;;;;;23.03;12.37;;;9.50;57.20;;;;;;5068789;28;20479;-68
2022/03/27 04:29:12;;;;;;;23.53;12.10;;;9.50;57.00;;;;;;5069031;28;20469;-67
2022/03/27 04:31:41;;;;;;;17.37;11.43;;;9.50;57.00;;;;;;5069175;28;20571;-68
2022/03/27 04:34:09;;;;;;;23.23;10.93;;;9.60;56.60;;;;;;5069186;28;20457;-68
2022/03/27 04:36:37;;;;;;;18.30;11.67;;;9.60;57.00;;;;;;5069058;28;20455;-66
2022/03/27 04:39:05;;;;;;;24.77;12.50;;;9.60;57.10;;;;;;5069028;28;20980;-66
2022/03/27 04:41:32;;;;;;;20.20;11.83;;;9.60;57.20;;;;;;5069067;28;20452;-67
2022/03/27 04:44:00;;;;;;;17.90;12.00;;;9.60;57.20;;;;;;5069164;28;20457;-67
2022/03/27 04:46:27;;;;;;;19.13;11.70;;;9.60;57.10;;;;;;5068821;28;20453;-67
2022/03/27 04:48:55;;;;;;;21.07;12.23;;;9.60;57.10;;;;;;5068839;28;20473;-68
2022/03/27 04:51:23;;;;;;;22.37;11.90;;;9.60;57.40;;;;;;5068881;28;20488;-68
2022/03/27 04:53:50;;;;;;;19.57;11.87;;;9.70;57.10;;;;;;5072701;28;20453;-68
2022/03/27 04:56:17;;;;;;;20.83;12.83;;;9.60;57.10;;;;;;5072554;28;20484;-68
2022/03/27 04:58:44;;;;;;;21.10;13.30;;;9.60;57.60;;;;;;5072545;28;20832;-68
2022/03/27 05:01:12;;;;;;;23.20;12.60;;;9.60;57.90;;;;;;5072276;28;20452;-68
2022/03/27 05:03:39;;;;;;;19.87;11.43;;;9.60;57.80;;;;;;5072281;28;20468;-68
2022/03/27 05:06:08;;;;;;;18.20;12.30;;;9.60;57.90;;;;;;5072385;28;20477;-67
2022/03/27 05:08:35;;;;;;;26.60;12.40;;;9.60;57.80;;;;;;5072430;28;20507;-70
2022/03/27 05:11:02;;;;;;;18.33;11.00;;;9.60;57.80;;;;;;5072407;28;20526;-67
2022/03/27 05:13:30;;;;;;;17.33;11.53;;;9.60;57.50;;;;;;5072273;28;20453;-68
2022/03/27 05:15:57;;;;;;;19.60;11.70;;;9.80;55.80;;;;;;5072446;28;20453;-67
2022/03/27 05:18:24;;;;;;;22.90;16.03;;;9.80;55.50;;;;;;5072536;28;20464;-67
2022/03/27 05:20:51;;;;;;;32.37;18.90;;;9.80;55.70;;;;;;5072463;28;20456;-67
2022/03/27 05:23:19;;;;;;;38.10;23.70;;;9.90;55.40;;;;;;5072107;28;20465;-67
2022/03/27 05:25:48;;;;;;;27.30;17.63;;;9.80;55.70;;;;;;5072400;28;20449;-69
2022/03/27 05:28:15;;;;;;;30.43;17.90;;;9.90;56.20;;;;;;5071480;28;20492;-68
2022/03/27 05:30:43;;;;;;;25.47;14.50;;;9.90;55.80;;;;;;5072018;28;20453;-69
2022/03/27 05:33:10;;;;;;;25.57;14.80;;;10.00;54.40;;;;;;5072250;28;20499;-68
2022/03/27 05:35:38;;;;;;;18.70;11.97;;;9.90;55.50;;;;;;5072297;28;20817;-68
2022/03/27 05:38:05;;;;;;;23.90;11.40;;;10.00;54.40;;;;;;5071434;28;20515;-68
2022/03/27 05:40:34;;;;;;;17.07;10.13;;;9.90;55.90;;;;;;5071877;28;20449;-68
2022/03/27 05:43:01;;;;;;;19.47;10.37;;;10.10;54.20;;;;;;5072005;28;20457;-68
2022/03/27 05:45:28;;;;;;;19.37;10.23;;;10.00;54.20;;;;;;5071637;28;20457;-68
2022/03/27 05:47:56;;;;;;;15.50;9.73;;;10.10;54.30;;;;;;5071877;28;20473;-68
2022/03/27 05:50:23;;;;;;;14.07;9.50;;;10.30;54.00;;;;;;5071849;28;20460;-68
2022/03/27 05:52:52;;;;;;;20.67;10.40;;;10.50;53.50;;;;;;5072019;28;20484;-69
2022/03/27 05:55:19;;;;;;;16.30;10.70;;;10.20;54.00;;;;;;5071586;28;20449;-68
2022/03/27 05:57:48;;;;;;;18.33;10.80;;;10.50;53.80;;;;;;5071529;28;20476;-68
2022/03/27 06:00:20;;;;;;;15.60;9.87;;;10.50;53.70;;;;;;5071465;28;20574;-69
2022/03/27 06:02:48;;;;;;;24.83;11.70;;;10.30;53.70;;;;;;5071120;28;20458;-81
2022/03/27 06:05:17;;;;;;;17.93;9.60;;;10.50;53.90;;;;;;5071857;28;20461;-76
2022/03/27 06:07:49;;;;;;;19.80;12.43;;;10.70;53.80;;;;;;5071079;28;20508;-78
2022/03/27 06:10:20;;;;;;;26.07;15.60;;;10.90;53.50;;;;;;5071390;28;20515;-69
2022/03/27 06:12:49;;;;;;;32.80;18.70;;;11.10;53.20;;;;;;5071106;28;20969;-75
2022/03/27 06:15:17;;;;;;;24.93;16.90;;;11.20;53.60;;;;;;5071347;28;20452;-80
2022/03/27 06:17:46;;;;;;;25.00;18.90;;;11.30;53.80;;;;;;5071261;28;20484;-80
2022/03/27 06:20:14;;;;;;;25.73;17.70;;;11.50;53.00;;;;;;5070719;28;20496;-68
2022/03/27 06:22:42;;;;;;;24.63;16.87;;;11.60;53.10;;;;;;5070618;28;20933;-78
2022/03/27 06:25:11;;;;;;;27.23;18.67;;;11.70;52.30;;;;;;5071034;28;20556;-75
2022/03/27 06:27:39;;;;;;;21.50;15.37;;;11.90;52.20;;;;;;5070883;28;20496;-80
2022/03/27 06:30:10;;;;;;;30.93;16.27;;;12.00;52.50;;;;;;5070652;28;20514;-75
2022/03/27 06:32:38;;;;;;;27.10;18.93;;;12.10;51.30;;;;;;5070944;28;20492;-75
2022/03/27 06:35:06;;;;;;;21.73;17.07;;;11.90;51.50;;;;;;5070533;28;20460;-74
2022/03/27 06:37:34;;;;;;;25.43;16.90;;;11.90;51.90;;;;;;5070533;28;20460;-75
2022/03/27 06:40:03;;;;;;;26.37;17.87;;;12.10;52.20;;;;;;5070712;28;20457;-74
2022/03/27 06:42:30;;;;;;;29.60;16.87;;;12.40;51.90;;;;;;5070284;28;20587;-74
2022/03/27 06:44:58;;;;;;;26.57;17.80;;;12.70;51.20;;;;;;5070707;28;20572;-75
2022/03/27 06:47:29;;;;;;;28.50;17.23;;;12.90;50.70;;;;;;5070408;28;20524;-69
2022/03/27 06:49:57;;;;;;;27.33;16.87;;;13.10;50.60;;;;;;5070602;28;20457;-68
2022/03/27 06:52:25;;;;;;;21.77;15.23;;;13.20;50.20;;;;;;5070306;28;20489;-70
2022/03/27 06:54:53;;;;;;;22.83;17.17;;;13.50;49.30;;;;;;5070415;28;20807;-69
2022/03/27 06:57:20;;;;;;;22.90;16.70;;;13.60;49.20;;;;;;5070424;28;20464;-76
2022/03/27 07:05:20;;;;;;;24.70;17.00;;;14.10;47.90;;;;;;5070115;28;20558;-66
2022/03/27 07:07:47;;;;;;;23.87;18.13;;;14.20;47.60;;;;;;5070146;28;21034;-56
2022/03/27 07:10:16;;;;;;;25.63;16.67;;;14.30;47.00;;;;;;5070474;28;20452;-74
2022/03/27 07:12:44;;;;;;;23.70;17.83;;;14.30;47.00;;;;;;5070129;28;20488;-71
2022/03/27 07:15:11;;;;;;;23.80;16.03;;;14.40;47.00;;;;;;5069906;28;20450;-73
2022/03/27 07:17:46;;;;;;;26.53;16.90;;;14.50;46.80;;;;;;5069885;28;20558;-70
2022/03/27 07:20:17;;;;;;;21.37;17.20;;;14.60;46.70;;;;;;5070054;28;20448;-73
2022/03/27 07:22:44;;;;;;;27.30;16.93;;;14.90;47.40;;;;;;5069787;28;20451;-73
2022/03/27 07:25:11;;;;;;;29.80;18.20;;;15.00;46.90;;;;;;5069864;28;20452;-74
2022/03/27 07:27:40;;;;;;;25.50;17.53;;;15.10;46.70;;;;;;5069799;28;20496;-76
2022/03/27 07:30:08;;;;;;;25.97;16.87;;;15.40;46.40;;;;;;5069885;28;20961;-75
2022/03/27 07:32:35;;;;;;;33.27;18.23;;;15.60;46.20;;;;;;5070302;28;20849;-76
2022/03/27 07:35:05;;;;;;;18.67;14.87;;;15.80;45.50;;;;;;5069996;28;20459;-74
2022/03/27 07:37:34;;;;;;;37.00;16.20;;;15.90;45.50;;;;;;5069922;28;20882;-72
2022/03/27 07:40:03;;;;;;;22.13;15.50;;;16.10;45.70;;;;;;5070041;28;20535;-76
2022/03/27 07:42:31;;;;;;;24.13;15.30;;;16.30;45.10;;;;;;5069870;28;20445;-75
2022/03/27 07:44:58;;;;;;;23.37;15.37;;;16.40;44.90;;;;;;5069577;28;20950;-77
2022/03/27 07:47:25;;;;;;;26.03;17.40;;;16.50;45.10;;;;;;5069838;28;20453;-77
2022/03/27 07:49:52;;;;;;;20.03;14.60;;;16.80;44.40;;;;;;5069753;28;20460;-75
2022/03/27 07:52:22;;;;;;;19.83;14.10;;;16.90;44.10;;;;;;5069675;28;20492;-77
2022/03/27 07:54:49;;;;;;;23.30;13.37;;;17.00;43.80;;;;;;5069749;28;20484;-77
2022/03/27 07:57:17;;;;;;;18.93;13.10;;;17.10;43.80;;;;;;5069943;28;20804;-75
2022/03/27 07:59:44;;;;;;;21.50;13.50;;;17.10;43.70;;;;;;5069845;28;20488;-72
2022/03/27 08:02:11;;;;;;;23.50;13.57;;;17.30;43.30;;;;;;5070123;28;20985;-74
2022/03/27 08:04:38;;;;;;;21.53;14.33;;;17.40;42.90;;;;;;5069587;28;20457;-77
2022/03/27 08:07:05;;;;;;;21.47;13.00;;;17.40;42.80;;;;;;5069544;28;20460;-75
2022/03/27 08:09:33;;;;;;;19.67;13.50;;;17.60;43.00;;;;;;5069448;28;20472;-73
2022/03/27 08:12:00;;;;;;;18.93;13.63;;;17.60;42.50;;;;;;5071783;28;20496;-77
2022/03/27 08:14:31;;;;;;;19.80;13.37;;;17.50;42.20;;;;;;5072262;28;20948;-72
2022/03/27 08:16:58;;;;;;;23.80;13.17;;;17.70;42.10;;;;;;5069258;28;20564;-75
2022/03/27 08:19:25;;;;;;;19.20;12.93;;;17.70;41.50;;;;;;5069543;28;20480;-75
2022/03/27 08:21:53;;;;;;;18.80;12.50;;;17.80;41.50;;;;;;5069617;28;20445;-80
2022/03/27 08:24:20;;;;;;;29.03;12.93;;;17.90;41.60;;;;;;5070043;28;20467;-75
2022/03/27 08:27:00;;;;;;;19.23;12.03;;;18.00;41.90;;;;;;5070780;28;20484;-79
2022/03/27 08:29:29;;;;;;;17.90;11.27;;;18.10;40.80;;;;;;5073323;28;20464;-73
2022/03/27 08:31:58;;;;;;;20.43;12.00;;;18.10;39.70;;;;;;5073393;28;20586;-74
2022/03/27 08:34:26;;;;;;;17.17;10.93;;;18.30;39.40;;;;;;5073141;28;20520;-75
2022/03/27 08:36:53;;;;;;;14.50;10.43;;;18.20;38.40;;;;;;5073223;28;20475;-73
2022/03/27 08:39:20;;;;;;;15.90;10.80;;;18.10;38.40;;;;;;5074088;28;20993;-74
2022/03/27 08:41:51;;;;;;;17.90;11.57;;;18.20;38.70;;;;;;5073929;28;20445;-70
2022/03/27 08:44:19;;;;;;;18.13;12.10;;;18.50;38.90;;;;;;5073132;28;20463;-69
2022/03/27 08:46:48;;;;;;;17.73;11.97;;;18.70;38.60;;;;;;5072826;28;20465;-68
2022/03/27 08:49:29;;;;;;;21.80;11.80;;;18.80;37.70;;;;;;5073088;28;20880;-69
2022/03/27 08:52:02;;;;;;;18.93;12.07;;;18.70;37.60;;;;;;5072937;28;20558;-68
2022/03/27 08:54:36;;;;;;;16.83;11.47;;;18.80;37.60;;;;;;5072876;28;20449;-69
2022/03/27 08:57:09;;;;;;;18.07;11.50;;;18.90;37.60;;;;;;5072356;28;20451;-69
2022/03/27 08:59:39;;;;;;;19.93;11.53;;;18.90;37.30;;;;;;5072827;28;20473;-68
2022/03/27 09:02:06;;;;;;;17.97;11.80;;;19.00;37.60;;;;;;5072783;28;20525;-66
2022/03/27 09:04:33;;;;;;;19.87;13.27;;;18.90;37.10;;;;;;5072786;28;20448;-67
2022/03/27 09:07:02;;;;;;;20.47;13.97;;;18.70;37.20;;;;;;5072500;28;20874;-67
2022/03/27 09:09:35;;;;;;;18.00;13.10;;;18.30;36.20;;;;;;5072493;28;20525;-66
2022/03/27 09:12:04;;;;;;;22.00;14.60;;;18.70;36.80;;;;;;5072608;28;20990;-68
2022/03/27 09:14:35;;;;;;;22.90;15.33;;;18.70;37.10;;;;;;5072535;28;20568;-67
2022/03/27 09:17:04;;;;;;;25.70;14.77;;;18.70;35.90;;;;;;5072405;28;20460;-68
2022/03/27 09:19:36;;;;;;;19.43;12.80;;;18.80;36.60;;;;;;5072333;28;20476;-69
2022/03/27 09:22:16;;;;;;;23.70;14.00;;;18.90;36.20;;;;;;5072508;28;20457;-68
2022/03/27 09:24:46;;;;;;;17.37;12.70;;;19.20;36.10;;;;;;5072429;28;20820;-68
2022/03/27 09:27:14;;;;;;;21.70;14.60;;;19.20;35.60;;;;;;5071952;28;20510;-67
2022/03/27 09:30:06;;;;;;;22.80;13.63;;;19.10;35.20;;;;;;5071795;28;20475;-68
2022/03/27 09:32:35;;;;;;;17.80;12.63;;;19.40;35.80;;;;;;5071741;28;20545;-68
2022/03/27 09:35:05;;;;;;;17.73;11.70;;;19.70;35.20;;;;;;5072214;28;20461;-68
2022/03/27 09:37:34;;;;;;;17.67;12.53;;;19.70;35.10;;;;;;5071365;28;20464;-67
2022/03/27 09:40:01;;;;;;;20.20;13.43;;;19.70;34.30;;;;;;5071303;28;20456;-67
2022/03/27 09:42:29;;;;;;;21.17;14.47;;;19.80;33.90;;;;;;5071646;28;20884;-67
2022/03/27 09:45:14;;;;;;;19.30;13.00;;;20.00;34.20;;;;;;5072030;28;20449;-68
2022/03/27 09:47:43;;;;;;;19.67;12.90;;;20.00;33.60;;;;;;5071299;28;20473;-66
2022/03/27 09:50:28;;;;;;;25.73;12.63;;;19.70;33.50;;;;;;5071834;28;20452;-67
2022/03/27 09:53:20;;;;;;;20.57;11.90;;;19.70;33.60;;;;;;5071315;28;20488;-68
2022/03/27 09:55:52;;;;;;;18.77;12.60;;;19.80;33.40;;;;;;5071321;28;20557;-67
2022/03/27 09:58:33;;;;;;;20.17;13.13;;;19.80;32.60;;;;;;5071568;28;20511;-67
2022/03/27 10:01:10;;;;;;;17.87;12.27;;;20.00;33.00;;;;;;5071633;28;20457;-68
2022/03/27 10:03:38;;;;;;;19.03;13.33;;;20.00;33.10;;;;;;5071273;28;20445;-67
2022/03/27 10:06:25;;;;;;;24.47;12.97;;;20.20;33.70;;;;;;5071364;28;20449;-67
2022/03/27 10:08:53;;;;;;;22.17;12.53;;;20.60;32.80;;;;;;5071461;28;20473;-68
2022/03/27 10:11:22;;;;;;;20.57;14.10;;;20.70;32.00;;;;;;5071763;28;20453;-68
2022/03/27 10:13:52;;;;;;;16.33;12.63;;;20.90;32.40;;;;;;5071007;28;20948;-67
2022/03/27 10:16:26;;;;;;;21.00;10.93;;;21.10;31.80;;;;;;5071210;28;20456;-67
2022/03/27 10:18:58;;;;;;;20.10;11.30;;;21.10;31.40;;;;;;5071305;28;20479;-67
2022/03/27 10:21:27;;;;;;;13.63;11.37;;;20.90;30.80;;;;;;5071129;28;20503;-67
2022/03/27 10:24:05;;;;;;;19.93;11.80;;;20.90;30.50;;;;;;5070566;28;20452;-67
2022/03/27 10:26:34;;;;;;;14.40;11.40;;;21.00;30.40;;;;;;5070706;28;20496;-67
2022/03/27 10:29:05;;;;;;;14.30;10.70;;;21.20;30.70;;;;;;5070679;28;20469;-67
2022/03/27 10:31:35;;;;;;;19.47;10.67;;;21.40;30.20;;;;;;5070698;28;20457;-67
2022/03/27 10:34:04;;;;;;;20.50;11.93;;;21.70;30.50;;;;;;5070727;28;20492;-69
2022/03/27 10:36:40;;;;;;;15.70;10.50;;;22.10;30.30;;;;;;5071332;28;20449;-69
2022/03/27 10:39:13;;;;;;;17.20;10.90;;;22.50;29.90;;;;;;5070346;28;20484;-68
2022/03/27 10:41:50;;;;;;;14.77;10.20;;;22.60;30.10;;;;;;5070819;28;20526;-67
2022/03/27 10:44:27;;;;;;;15.63;10.80;;;22.50;29.20;;;;;;5070585;28;20442;-67
2022/03/27 10:50:24;;;;;;;13.40;9.33;;;22.50;29.00;;;;;;5086445;27;20564;-66
2022/03/27 10:53:08;;;;;;;16.07;9.77;;;22.20;29.20;;;;;;5087169;28;20806;-66
2022/03/27 10:55:38;;;;;;;13.63;9.13;;;22.40;29.10;;;;;;5087113;28;20527;-67
2022/03/27 10:58:33;;;;;;;16.00;9.37;;;22.60;28.90;;;;;;5086903;28;20468;-68
2022/03/27 11:01:03;;;;;;;16.33;9.80;;;22.60;28.70;;;;;;5087113;28;20932;-68
2022/03/27 11:04:04;;;;;;;14.40;9.50;;;22.80;28.70;;;;;;5087171;28;20513;-68
2022/03/27 11:06:35;;;;;;;20.30;9.30;;;23.10;28.50;;;;;;5086683;28;20784;-68
2022/03/27 11:09:04;;;;;;;14.10;9.83;;;23.00;28.40;;;;;;5086690;28;20848;-68
2022/03/27 11:11:56;;;;;;;15.50;9.17;;;23.00;28.80;;;;;;5086998;28;21199;-68
2022/03/27 11:15:00;;;;;;;15.50;9.80;;;23.30;28.40;;;;;;5086842;28;20444;-68
2022/03/27 11:17:45;;;;;;;14.33;8.87;;;23.50;28.50;;;;;;5086552;28;20938;-66
2022/03/27 11:20:57;;;;;;;14.10;10.20;;;23.70;28.30;;;;;;5086673;28;20451;-68
2022/03/27 11:23:31;;;;;;;12.50;9.40;;;23.70;27.80;;;;;;5086580;28;20517;-68
2022/03/27 11:25:58;;;;;;;18.03;9.33;;;23.70;27.90;;;;;;5086804;28;20575;-68
2022/03/27 11:28:26;;;;;;;17.53;8.90;;;23.90;27.50;;;;;;5085969;28;20514;-68
2022/03/27 11:31:26;;;;;;;13.47;8.97;;;24.10;27.50;;;;;;5086189;28;20467;-68
2022/03/27 11:34:18;;;;;;;17.53;11.60;;;24.40;27.40;;;;;;5086336;28;20448;-67
2022/03/27 11:37:11;;;;;;;21.33;12.57;;;24.40;27.00;;;;;;5086537;28;20501;-68
2022/03/27 11:39:40;;;;;;;22.63;15.20;;;24.20;27.20;;;;;;5086108;28;20468;-69
2022/03/27 11:42:29;;;;;;;25.47;15.63;;;23.80;27.60;;;;;;5086287;28;20858;-68
2022/03/27 11:45:14;;;;;;;22.07;16.00;;;23.50;28.10;;;;;;5086260;28;20520;-68
2022/03/27 11:47:43;;;;;;;22.30;16.00;;;23.50;28.10;;;;;;5085689;28;20554;-77
2022/03/27 11:50:21;;;;;;;22.73;15.13;;;23.50;27.80;;;;;;5085807;28;20452;-76
2022/03/27 11:52:48;;;;;;;20.13;16.03;;;23.60;27.80;;;;;;5086086;28;20504;-68
2022/03/27 11:55:18;;;;;;;22.97;14.23;;;23.70;27.70;;;;;;5086087;28;20444;-67
2022/03/27 11:57:47;;;;;;;21.50;14.93;;;23.80;28.20;;;;;;5085501;28;20829;-67
2022/03/27 12:00:16;;;;;;;23.97;17.67;;;23.90;28.10;;;;;;5077513;28;20449;-67
2022/03/27 12:02:45;;;;;;;23.10;14.53;;;24.10;28.00;;;;;;5072038;28;20539;-67
2022/03/27 12:05:12;;;;;;;19.60;13.97;;;24.10;27.70;;;;;;5072342;28;20928;-68
2022/03/27 12:07:51;;;;;;;17.60;13.07;;;24.30;27.70;;;;;;5072160;28;20477;-67
2022/03/27 12:10:19;;;;;;;19.30;11.70;;;24.10;26.70;;;;;;5072241;28;20481;-68
2022/03/27 12:12:57;;;;;;;18.77;12.60;;;23.90;26.90;;;;;;5071915;28;20453;-68
2022/03/27 12:15:39;;;;;;;17.17;12.70;;;24.20;27.20;;;;;;5072120;28;20452;-68
2022/03/27 12:18:07;;;;;;;17.70;13.17;;;24.50;27.30;;;;;;5072057;28;20518;-68
2022/03/27 12:20:48;;;;;;;19.13;13.67;;;24.50;27.10;;;;;;5072238;28;21000;-68
2022/03/27 12:23:20;;;;;;;18.40;12.27;;;24.30;26.60;;;;;;5071855;28;20793;-69
2022/03/27 12:26:02;;;;;;;18.00;12.10;;;24.40;26.70;;;;;;5071630;28;20460;-69
2022/03/27 12:31:26;;;;;;;15.73;11.27;;;24.70;26.80;;;;;;5071728;28;20428;-68
2022/03/27 12:33:55;;;;;;;18.07;11.80;;;24.70;26.50;;;;;;5071653;28;20445;-68
2022/03/27 12:36:22;;;;;;;19.40;11.03;;;24.70;26.90;;;;;;5071490;28;20452;-69
2022/03/27 12:38:49;;;;;;;15.80;12.10;;;24.90;26.40;;;;;;5071493;28;20465;-68
2022/03/27 12:41:37;;;;;;;14.43;10.43;;;25.20;26.70;;;;;;5071586;28;20445;-69
2022/03/27 12:44:05;;;;;;;14.63;9.87;;;25.30;26.20;;;;;;5071144;28;20449;-69
2022/03/27 12:46:32;;;;;;;15.30;9.90;;;25.20;26.00;;;;;;5071411;28;20457;-68
2022/03/27 12:49:00;;;;;;;14.93;11.00;;;24.90;26.40;;;;;;5070742;28;21028;-67
2022/03/27 12:51:28;;;;;;;14.20;9.97;;;24.70;26.30;;;;;;5071479;28;20453;-68
2022/03/27 12:54:02;;;;;;;14.67;9.93;;;24.60;26.60;;;;;;5071080;28;20922;-68
2022/03/27 12:56:32;;;;;;;13.80;10.53;;;24.70;26.30;;;;;;5071199;28;20459;-68
2022/03/27 12:59:17;;;;;;;16.40;10.83;;;24.70;26.60;;;;;;5071202;28;21403;-71